createdAt,value
2022-09-12T00:00:26.405Z,8.38
2022-09-12T00:03:17.002Z,7.97
2022-09-12T00:05:48.063Z,7.97
2022-09-12T00:08:18.241Z,5.72
2022-09-12T00:10:49.653Z,6.00
2022-09-12T00:13:19.883Z,8.07
2022-09-12T00:15:49.793Z,6.22
2022-09-12T00:18:20.291Z,10.93
2022-09-12T00:20:50.891Z,7.95
2022-09-12T00:23:21.014Z,6.70
2022-09-12T00:25:52.591Z,10.50
2022-09-12T00:28:22.593Z,8.20
2022-09-12T00:30:52.794Z,9.32
2022-09-12T00:33:22.848Z,7.35
2022-09-12T00:35:54.313Z,7.93
2022-09-12T00:38:24.241Z,8.07
2022-09-12T00:40:55.891Z,6.13
2022-09-12T00:43:40.755Z,6.65
2022-09-12T00:46:20.981Z,6.47
2022-09-12T00:48:56.083Z,5.95
2022-09-12T00:51:26.481Z,13.50
2022-09-12T00:53:59.706Z,6.72
2022-09-12T00:56:31.633Z,9.27
2022-09-12T00:59:07.041Z,8.40
2022-09-12T01:01:38.083Z,8.02
2022-09-12T01:04:08.554Z,6.47
2022-09-12T01:06:41.647Z,5.10
2022-09-12T01:09:13.865Z,7.10
2022-09-12T01:11:47.421Z,9.25
2022-09-12T01:14:19.959Z,5.68
2022-09-12T01:16:52.304Z,8.52
2022-09-12T01:19:46.523Z,5.90
2022-09-12T01:22:32.859Z,6.97
2022-09-12T01:25:13.065Z,5.93
2022-09-12T01:28:24.427Z,5.97
2022-09-12T01:31:01.753Z,5.33
2022-09-12T01:33:40.634Z,6.80
2022-09-12T01:36:26.959Z,4.88
2022-09-12T01:39:02.200Z,6.60
2022-09-12T01:41:41.397Z,6.65
2022-09-12T01:44:20.407Z,6.10
2022-09-12T01:46:59.641Z,8.77
2022-09-12T01:49:34.949Z,5.63
2022-09-12T01:52:12.957Z,5.50
2022-09-12T01:54:48.579Z,6.40
2022-09-12T01:57:25.971Z,9.93
2022-09-12T02:00:01.617Z,7.25
2022-09-12T02:02:37.177Z,4.80
2022-09-12T02:05:12.127Z,6.40
2022-09-12T02:07:47.249Z,6.10
2022-09-12T02:10:20.947Z,12.65
2022-09-12T02:12:55.029Z,5.30
2022-09-12T02:15:30.988Z,5.57
2022-09-12T02:18:04.968Z,5.72
2022-09-12T02:20:54.366Z,7.38
2022-09-12T02:23:28.847Z,6.63
2022-09-12T02:26:05.267Z,6.32
2022-09-12T02:28:39.789Z,7.45
2022-09-12T02:31:16.158Z,6.30
2022-09-12T02:33:55.233Z,6.25
2022-09-12T02:36:36.240Z,4.57
2022-09-12T02:39:06.709Z,5.15
2022-09-12T02:41:37.159Z,10.63
2022-09-12T02:44:07.778Z,4.50
2022-09-12T02:46:43.700Z,7.28
2022-09-12T02:49:15.630Z,4.88
2022-09-12T02:51:46.638Z,6.82
2022-09-12T02:54:19.237Z,4.83
2022-09-12T02:56:49.608Z,12.07
2022-09-12T02:59:23.589Z,7.97
2022-09-12T03:02:09.354Z,4.03
2022-09-12T03:05:07.228Z,7.30
2022-09-12T03:07:57.938Z,6.57
2022-09-12T03:10:36.567Z,5.15
2022-09-12T03:13:19.280Z,6.32
2022-09-12T03:16:01.898Z,9.50
2022-09-12T03:18:53.266Z,6.20
2022-09-12T03:21:33.811Z,6.35
2022-09-12T03:24:15.653Z,7.55
2022-09-12T03:26:49.976Z,6.60
2022-09-12T03:29:21.016Z,4.18
2022-09-12T03:31:53.573Z,5.35
2022-09-12T03:34:25.473Z,8.00
2022-09-12T03:36:57.604Z,11.30
2022-09-12T03:39:28.296Z,5.30
2022-09-12T03:41:58.824Z,7.03
2022-09-12T03:44:29.467Z,8.20
2022-09-12T03:46:59.585Z,5.57
2022-09-12T03:49:29.515Z,6.85
2022-09-12T03:52:01.133Z,6.85
2022-09-12T03:54:31.036Z,4.60
2022-09-12T03:57:01.255Z,5.57
2022-09-12T03:59:31.333Z,8.48
2022-09-12T04:02:01.324Z,10.95
2022-09-12T04:04:31.551Z,7.22
2022-09-12T04:07:03.152Z,6.75
2022-09-12T04:09:33.316Z,7.07
2022-09-12T04:12:03.773Z,7.53
2022-09-12T04:14:34.146Z,10.67
2022-09-12T04:17:04.505Z,5.57
2022-09-12T04:19:34.395Z,6.88
2022-09-12T04:22:06.206Z,8.60
2022-09-12T04:27:07.804Z,8.32
2022-09-12T04:29:38.076Z,5.57
2022-09-12T04:32:08.503Z,6.28
2022-09-12T04:34:39.524Z,6.65
2022-09-12T04:37:12.024Z,5.65
2022-09-12T04:39:42.094Z,6.63
2022-09-12T04:42:12.854Z,6.37
2022-09-12T04:44:42.844Z,7.15
2022-09-12T04:47:13.157Z,7.43
2022-09-12T04:49:43.435Z,7.43
2022-09-12T04:52:14.834Z,7.13
2022-09-12T04:54:45.095Z,7.10
2022-09-12T04:57:15.034Z,7.88
2022-09-12T04:59:45.124Z,6.13
2022-09-12T05:02:15.312Z,8.18
2022-09-12T05:04:47.215Z,6.63
2022-09-12T05:07:19.531Z,6.80
2022-09-12T05:09:49.976Z,9.52
2022-09-12T05:12:20.156Z,7.70
2022-09-12T05:14:50.171Z,7.00
2022-09-12T05:17:20.316Z,11.82
2022-09-12T05:19:51.186Z,4.95
2022-09-12T05:22:23.154Z,6.00
2022-09-12T05:24:53.542Z,6.88
2022-09-12T05:27:23.603Z,9.63
2022-09-12T05:29:53.995Z,7.45
2022-09-12T05:32:24.193Z,7.67
2022-09-12T05:34:54.203Z,6.22
2022-09-12T05:37:25.584Z,5.45
2022-09-12T05:39:56.029Z,5.35
2022-09-12T05:42:26.133Z,7.60
2022-09-12T05:44:56.043Z,6.30
2022-09-12T05:47:26.275Z,7.80
2022-09-12T05:49:56.273Z,8.65
2022-09-12T05:52:27.585Z,8.85
2022-09-12T05:54:57.936Z,8.82
2022-09-12T05:57:27.986Z,13.48
2022-09-12T05:59:59.437Z,6.68
2022-09-12T06:02:29.648Z,7.70
2022-09-12T06:04:59.878Z,7.38
2022-09-12T06:07:32.335Z,7.00
2022-09-12T06:10:02.575Z,8.02
2022-09-12T06:12:32.596Z,4.80
2022-09-12T06:15:02.878Z,6.93
2022-09-12T06:17:32.816Z,5.05
2022-09-12T06:20:04.354Z,6.10
2022-09-12T06:22:36.053Z,5.50
2022-09-12T06:25:06.454Z,4.35
2022-09-12T06:27:36.563Z,4.70
2022-09-12T06:30:07.434Z,7.45
2022-09-12T06:35:08.153Z,9.55
2022-09-12T06:37:40.996Z,8.90
2022-09-12T06:40:12.676Z,7.72
2022-09-12T06:42:42.903Z,2.63
2022-09-12T06:45:13.254Z,6.30
2022-09-12T06:47:43.306Z,5.00
2022-09-12T06:50:13.675Z,4.93
2022-09-12T06:52:45.146Z,3.88
2022-09-12T06:55:19.844Z,6.10
2022-09-12T06:57:50.913Z,8.93
2022-09-12T07:00:22.416Z,8.85
2022-09-12T07:02:57.045Z,4.82
2022-09-12T07:05:28.423Z,4.60
2022-09-12T07:07:59.864Z,5.15
2022-09-12T07:10:31.341Z,6.80
2022-09-12T07:13:01.305Z,4.65
2022-09-12T07:15:31.745Z,5.45
2022-09-12T07:18:01.593Z,5.60
2022-09-12T07:20:33.455Z,7.07
2022-09-12T07:23:05.453Z,10.57
2022-09-12T07:25:36.333Z,7.60
2022-09-12T07:28:06.556Z,7.15
2022-09-12T07:30:40.322Z,6.35
2022-09-12T07:33:10.570Z,3.92
2022-09-12T07:35:41.013Z,4.57
2022-09-12T07:38:12.471Z,7.90
2022-09-12T07:40:42.703Z,7.90
2022-09-12T07:43:12.793Z,5.25
2022-09-12T07:45:43.667Z,7.45
2022-09-12T07:48:14.223Z,4.97
2022-09-12T07:50:45.253Z,4.47
2022-09-12T07:53:16.715Z,3.50
2022-09-12T07:55:54.723Z,5.68
2022-09-12T07:58:25.527Z,2.85
2022-09-12T08:00:55.811Z,4.28
2022-09-12T08:03:25.943Z,3.05
2022-09-12T08:05:56.116Z,4.18
2022-09-12T08:08:27.714Z,5.75
2022-09-12T08:11:00.173Z,4.60
2022-09-12T08:13:30.761Z,4.20
2022-09-12T08:16:02.471Z,2.22
2022-09-12T08:18:34.235Z,3.45
2022-09-12T08:21:06.388Z,2.90
2022-09-12T08:23:37.965Z,3.42
2022-09-12T08:26:08.817Z,3.10
2022-09-12T08:28:41.056Z,2.97
2022-09-12T08:31:15.151Z,3.60
2022-09-12T08:33:46.005Z,3.45
2022-09-12T08:36:18.323Z,3.47
2022-09-12T08:38:51.636Z,4.15
2022-09-12T08:41:30.656Z,5.45
2022-09-12T08:44:24.013Z,3.28
2022-09-12T08:47:13.002Z,2.10
2022-09-12T08:49:52.675Z,2.65
2022-09-12T08:52:29.174Z,2.25
2022-09-12T08:55:01.854Z,4.88
2022-09-12T08:57:32.224Z,3.50
2022-09-12T09:00:06.565Z,3.58
2022-09-12T09:03:12.658Z,2.80
2022-09-12T09:05:52.363Z,3.60
2022-09-12T09:08:38.755Z,3.10
2022-09-12T09:11:31.163Z,3.25
2022-09-12T09:14:31.093Z,2.60
2022-09-12T09:17:03.555Z,4.65
2022-09-12T09:19:39.074Z,7.35
2022-09-12T09:22:14.759Z,4.20
2022-09-12T09:24:50.223Z,3.03
2022-09-12T09:27:47.158Z,4.18
2022-09-12T09:30:19.835Z,7.18
2022-09-12T09:32:53.945Z,4.13
2022-09-12T09:35:36.526Z,7.57
2022-09-12T09:38:20.144Z,2.83
2022-09-12T09:41:00.153Z,5.82
2022-09-12T09:43:32.729Z,4.78
2022-09-12T09:46:03.256Z,7.65
2022-09-12T09:48:35.330Z,7.07
2022-09-12T09:51:09.602Z,3.95
2022-09-12T09:53:46.963Z,5.50
2022-09-12T09:56:28.529Z,8.35
2022-09-12T10:04:22.074Z,7.15
2022-09-12T10:06:54.865Z,3.35
2022-09-12T10:09:27.473Z,3.03
2022-09-12T10:11:58.945Z,2.80
2022-09-12T10:17:34.693Z,3.17
2022-09-12T10:20:22.475Z,4.60
2022-09-12T10:22:52.987Z,3.22
2022-09-12T10:25:26.505Z,5.10
2022-09-12T10:28:00.773Z,4.95
2022-09-12T10:30:32.273Z,3.92
2022-09-12T10:33:13.895Z,2.38
2022-09-12T10:35:50.467Z,3.15
2022-09-12T10:38:25.705Z,3.00
2022-09-12T10:41:03.845Z,2.40
2022-09-12T10:43:38.753Z,3.10
2022-09-12T10:46:31.066Z,2.08
2022-09-12T10:49:23.303Z,3.60
2022-09-12T10:51:54.679Z,4.63
2022-09-12T10:54:27.668Z,2.97
2022-09-12T10:57:21.946Z,4.35
2022-09-12T11:00:18.213Z,4.20
2022-09-12T11:03:17.685Z,3.05
2022-09-12T11:05:56.296Z,4.70
2022-09-12T11:08:42.665Z,3.38
2022-09-12T11:11:24.644Z,1.70
2022-09-12T11:14:11.224Z,3.10
2022-09-12T11:16:50.804Z,5.72
2022-09-12T11:19:48.201Z,2.67
2022-09-12T11:22:38.097Z,2.47
2022-09-12T11:25:33.316Z,3.83
2022-09-12T11:28:23.215Z,3.25
2022-09-12T11:31:15.240Z,4.82
2022-09-12T11:33:47.934Z,5.15
2022-09-12T11:36:43.055Z,2.45
2022-09-12T11:39:16.893Z,4.97
2022-09-12T11:41:52.813Z,4.30
2022-09-12T11:44:28.923Z,7.10
2022-09-12T11:46:59.803Z,23.42
2022-09-12T11:49:38.126Z,13.35
2022-09-12T11:52:17.699Z,9.32
2022-09-12T11:54:53.888Z,6.68
2022-09-12T11:57:32.415Z,6.07
2022-09-12T12:00:07.354Z,5.05
2022-09-12T12:02:43.965Z,3.10
2022-09-12T12:05:22.055Z,3.05
2022-09-12T12:07:58.895Z,5.35
2022-09-12T12:10:37.179Z,4.65
2022-09-12T12:13:14.334Z,6.60
2022-09-12T12:15:49.760Z,4.63
2022-09-12T12:18:22.032Z,4.43
2022-09-12T12:20:53.333Z,4.78
2022-09-12T12:23:31.395Z,3.05
2022-09-12T12:26:04.133Z,4.22
2022-09-12T12:29:01.297Z,5.97
2022-09-12T12:31:31.580Z,4.10
2022-09-12T12:34:24.414Z,9.07
2022-09-12T12:36:54.634Z,4.72
2022-09-12T12:40:01.497Z,4.05
2022-09-12T12:43:23.003Z,3.03
2022-09-12T12:46:16.175Z,2.75
2022-09-12T12:48:55.465Z,5.00
2022-09-12T12:52:01.727Z,6.03
2022-09-12T12:54:57.987Z,3.67
2022-09-12T12:57:48.818Z,3.00
2022-09-12T13:00:32.524Z,3.00
2022-09-12T13:03:12.156Z,4.60
2022-09-12T13:05:45.634Z,3.95
2022-09-12T13:08:31.982Z,3.30
2022-09-12T13:11:07.676Z,2.92
2022-09-12T13:13:43.374Z,4.57
2022-09-12T13:16:14.038Z,3.90
2022-09-12T13:18:48.058Z,3.33
2022-09-12T13:21:20.255Z,3.53
2022-09-12T13:24:03.023Z,5.05
2022-09-12T13:26:41.845Z,2.65
2022-09-12T13:29:14.226Z,3.78
2022-09-12T13:31:47.533Z,2.03
2022-09-12T13:34:22.634Z,2.95
2022-09-12T13:37:26.485Z,2.97
2022-09-12T13:40:07.729Z,2.90
2022-09-12T13:42:42.986Z,4.85
2022-09-12T13:45:21.385Z,4.82
2022-09-12T13:47:58.470Z,4.22
2022-09-12T13:50:33.963Z,4.75
2022-09-12T13:53:07.385Z,3.13
2022-09-12T13:55:40.522Z,3.28
2022-09-12T13:58:21.144Z,6.18
2022-09-12T14:01:04.196Z,3.03
2022-09-12T14:03:58.966Z,5.07
2022-09-12T14:06:36.976Z,3.40
2022-09-12T14:09:16.477Z,4.18
2022-09-12T14:11:46.534Z,5.07
2022-09-12T14:14:28.286Z,1.90
2022-09-12T14:16:59.263Z,3.63
2022-09-12T14:19:30.274Z,4.03
2022-09-12T14:22:02.408Z,9.68
2022-09-12T14:24:33.585Z,5.15
2022-09-12T14:27:03.645Z,5.47
2022-09-12T14:29:35.114Z,3.88
2022-09-12T14:32:07.237Z,4.38
2022-09-12T14:34:39.097Z,3.88
2022-09-12T14:37:10.935Z,4.95
2022-09-12T14:39:44.445Z,11.52
2022-09-12T14:42:18.247Z,4.97
2022-09-12T14:44:58.791Z,5.28
2022-09-12T14:47:40.455Z,4.22
2022-09-12T14:50:18.653Z,2.97
2022-09-12T14:53:06.468Z,12.98
2022-09-12T14:55:44.901Z,7.93
2022-09-12T14:58:26.432Z,4.80
2022-09-12T15:01:04.255Z,5.47
2022-09-12T15:03:37.113Z,6.00
2022-09-12T15:06:22.263Z,3.15
2022-09-12T15:08:55.843Z,2.47
2022-09-12T15:11:26.085Z,2.22
2022-09-12T15:13:56.905Z,5.10
2022-09-12T15:16:27.263Z,4.78
2022-09-12T15:18:57.305Z,7.03
2022-09-12T15:21:27.451Z,4.47
2022-09-12T15:23:59.124Z,2.73
2022-09-12T15:29:02.175Z,2.88
2022-09-12T15:31:34.121Z,2.75
2022-09-12T15:34:05.073Z,2.20
2022-09-12T15:36:35.142Z,2.65
2022-09-12T15:39:07.437Z,1.67
2022-09-12T15:41:39.056Z,3.50
2022-09-12T15:44:12.713Z,3.50
2022-09-12T15:46:43.232Z,3.03
2022-09-12T15:49:13.606Z,3.03
2022-09-12T15:51:44.695Z,5.22
2022-09-12T15:56:47.893Z,4.63
2022-09-12T15:59:21.213Z,3.85
2022-09-12T16:01:51.218Z,3.00
2022-09-12T16:04:25.605Z,3.90
2022-09-12T16:06:58.381Z,6.90
2022-09-12T16:09:30.728Z,6.65
2022-09-12T16:12:01.686Z,5.03
2022-09-12T16:14:31.646Z,3.55
2022-09-12T16:17:01.986Z,5.03
2022-09-12T16:19:31.967Z,4.75
2022-09-12T16:22:02.205Z,4.05
2022-09-12T16:24:35.041Z,5.10
2022-09-12T16:27:05.429Z,8.18
2022-09-12T16:29:36.395Z,5.00
2022-09-12T16:32:06.525Z,3.83
2022-09-12T16:34:36.712Z,3.60
2022-09-12T16:37:07.087Z,7.43
2022-09-12T16:39:38.863Z,2.83
2022-09-12T16:42:09.365Z,5.13
2022-09-12T16:44:39.654Z,5.05
2022-09-12T16:47:09.667Z,6.65
2022-09-12T16:49:40.262Z,6.18
2022-09-12T16:52:11.694Z,4.37
2022-09-12T16:57:13.216Z,5.07
2022-09-12T16:59:43.753Z,7.23
2022-09-12T17:02:14.956Z,8.55
2022-09-12T17:04:45.284Z,8.48
2022-09-12T17:07:15.366Z,4.63
2022-09-12T17:09:48.048Z,7.57
2022-09-12T17:12:18.413Z,4.45
2022-09-12T17:14:48.292Z,7.10
2022-09-12T17:17:18.144Z,8.90
2022-09-12T17:19:48.432Z,12.40
2022-09-12T17:22:18.239Z,9.13
2022-09-12T17:24:49.693Z,10.70
2022-09-12T17:27:19.857Z,8.70
2022-09-12T17:29:49.774Z,7.72
2022-09-12T17:32:19.697Z,9.23
2022-09-12T17:34:50.997Z,16.48
2022-09-12T17:37:22.031Z,17.58
2022-09-12T17:39:53.772Z,15.60
2022-09-12T17:42:24.643Z,22.10
2022-09-12T17:44:55.965Z,20.95
2022-09-12T17:47:25.914Z,27.42
2022-09-12T17:50:14.550Z,20.15
2022-09-12T17:52:46.572Z,16.58
2022-09-12T17:55:18.225Z,13.05
2022-09-12T17:57:48.836Z,12.35
2022-09-12T18:00:39.993Z,12.27
2022-09-12T18:03:09.065Z,12.93
2022-09-12T18:05:46.325Z,13.35
2022-09-12T18:08:16.433Z,15.40
2022-09-12T18:10:48.675Z,14.23
2022-09-12T18:13:18.928Z,14.63
2022-09-12T18:15:49.834Z,12.20
2022-09-12T18:18:21.255Z,10.60
2022-09-12T18:20:55.001Z,11.02
2022-09-12T18:23:25.575Z,11.00
2022-09-12T18:26:05.271Z,15.18
2022-09-12T18:28:37.153Z,15.13
2022-09-12T18:31:14.654Z,9.57
2022-09-12T18:33:47.428Z,10.50
2022-09-12T18:38:51.948Z,11.30
2022-09-12T18:41:26.513Z,10.68
2022-09-12T18:43:59.605Z,10.23
2022-09-12T18:46:33.055Z,13.07
2022-09-12T18:49:03.761Z,10.18
2022-09-12T18:51:36.343Z,12.57
2022-09-12T18:54:09.080Z,13.75
2022-09-12T18:56:44.391Z,12.25
2022-09-12T18:59:15.607Z,9.68
2022-09-12T19:01:46.213Z,10.35
2022-09-12T19:04:16.907Z,12.35
2022-09-12T19:06:49.016Z,11.65
2022-09-12T19:09:20.896Z,12.43
2022-09-12T19:11:53.004Z,15.15
2022-09-12T19:14:25.236Z,12.65
2022-09-12T19:16:56.258Z,19.50
2022-09-12T19:19:26.898Z,14.80
2022-09-12T19:21:58.389Z,19.42
2022-09-12T19:24:29.397Z,16.15
2022-09-12T19:27:06.074Z,11.27
2022-09-12T19:29:36.613Z,12.63
2022-09-12T19:32:09.994Z,19.48
2022-09-12T19:34:44.354Z,18.27
2022-09-12T19:37:19.004Z,14.18
2022-09-12T19:39:50.372Z,14.73
2022-09-12T19:42:23.823Z,15.05
2022-09-12T19:44:56.228Z,15.27
2022-09-12T19:47:28.292Z,15.75
2022-09-12T19:50:01.783Z,16.90
2022-09-12T19:52:35.174Z,18.63
2022-09-12T19:55:05.355Z,16.10
2022-09-12T19:57:37.663Z,14.18
2022-09-12T20:00:09.004Z,13.55
2022-09-12T20:02:39.901Z,14.68
2022-09-12T20:05:10.463Z,17.67
2022-09-12T20:07:40.676Z,17.87
2022-09-12T20:10:11.508Z,17.92
2022-09-12T20:12:43.454Z,13.15
2022-09-12T20:15:16.265Z,14.07
2022-09-12T20:17:48.276Z,22.10
2022-09-12T20:20:19.074Z,12.68
2022-09-12T20:22:52.865Z,16.63
2022-09-12T20:25:23.803Z,13.68
2022-09-12T20:27:59.969Z,20.42
2022-09-12T20:30:30.285Z,13.50
2022-09-12T20:33:00.638Z,16.15
2022-09-12T20:35:30.898Z,12.98
2022-09-12T20:38:01.165Z,14.52
2022-09-12T20:40:31.365Z,14.13
2022-09-12T20:43:03.161Z,14.57
2022-09-12T20:45:33.725Z,17.00
2022-09-12T20:48:05.106Z,15.15
2022-09-12T20:50:35.630Z,18.17
2022-09-12T20:53:06.210Z,14.82
2022-09-12T20:55:36.992Z,15.88
2022-09-12T20:58:08.980Z,15.48
2022-09-12T21:00:40.874Z,15.45
2022-09-12T21:03:10.835Z,22.20
2022-09-12T21:05:41.374Z,16.48
2022-09-12T21:08:11.693Z,14.95
2022-09-12T21:10:43.176Z,14.90
2022-09-12T21:13:15.230Z,15.30
2022-09-12T21:15:45.590Z,14.35
2022-09-12T21:18:15.632Z,13.80
2022-09-12T21:20:52.685Z,19.00
2022-09-12T21:23:23.304Z,15.85
2022-09-12T21:25:54.143Z,16.77
2022-09-12T21:28:25.554Z,14.77
2022-09-12T21:30:56.225Z,14.38
2022-09-12T21:33:26.453Z,14.43
2022-09-12T21:35:58.191Z,15.80
2022-09-12T21:41:06.045Z,13.93
2022-09-12T21:43:37.955Z,13.90
2022-09-12T21:46:10.368Z,14.73
2022-09-12T21:48:40.524Z,31.92
2022-09-12T21:51:10.745Z,15.80
2022-09-12T21:53:40.784Z,12.60
2022-09-12T21:56:11.546Z,15.30
2022-09-12T21:58:42.959Z,16.90
2022-09-12T22:01:14.512Z,13.80
2022-09-12T22:03:45.193Z,12.48
2022-09-12T22:06:17.760Z,14.90
2022-09-12T22:08:50.735Z,19.23
2022-09-12T22:11:22.374Z,17.77
2022-09-12T22:13:53.855Z,18.40
2022-09-12T22:16:24.160Z,18.10
2022-09-12T22:18:54.293Z,16.60
2022-09-12T22:21:25.470Z,14.63
2022-09-12T22:24:12.940Z,17.20
2022-09-12T22:26:43.767Z,15.52
2022-09-12T22:29:15.685Z,14.50
2022-09-12T22:31:45.829Z,15.00
2022-09-12T22:34:16.059Z,15.38
2022-09-12T22:36:46.720Z,17.75
2022-09-12T22:39:17.140Z,15.88
2022-09-12T22:41:47.142Z,15.13
2022-09-12T22:44:19.080Z,17.50
2022-09-12T22:46:49.125Z,15.65
2022-09-12T22:49:19.363Z,16.00
2022-09-12T22:51:49.469Z,14.80
2022-09-12T22:54:19.809Z,19.65
2022-09-12T22:56:49.932Z,16.50
2022-09-12T22:59:21.741Z,15.07
2022-09-12T23:04:21.490Z,17.65
2022-09-12T23:06:51.461Z,14.70
2022-09-12T23:09:21.751Z,16.25
2022-09-12T23:11:52.409Z,14.25
2022-09-12T23:14:24.092Z,13.68
2022-09-12T23:19:23.702Z,16.13
2022-09-12T23:21:53.631Z,15.10
2022-09-12T23:24:23.809Z,12.05
2022-09-12T23:26:53.793Z,16.08
2022-09-12T23:29:25.250Z,12.15
2022-09-12T23:31:55.752Z,10.55
2022-09-12T23:34:25.640Z,11.38
2022-09-12T23:36:56.840Z,13.45
2022-09-12T23:39:27.049Z,11.80
2022-09-12T23:41:57.229Z,13.55
2022-09-12T23:44:28.671Z,15.73
2022-09-12T23:46:58.909Z,13.50
2022-09-12T23:49:28.821Z,13.55
2022-09-12T23:51:58.641Z,13.52
2022-09-12T23:54:28.769Z,12.68
2022-09-12T23:56:58.849Z,13.85
2022-09-12T23:59:31.269Z,11.13
